Time;durP1;ratioP1;P1;durP2;ratioP2;P2;SDS_P1;SDS_P2;PMS_P1;PMS_P2;Temp;Humidity;BMP_temperature;BMP_pressure;BME280_temperature;BME280_humidity;BME280_pressure;Samples;Min_cycle;Max_cycle;Signal;HPM_P1;HPM_P2
2022/05/26 00:00:34;;;;;;;4.60;2.63;;;;;;;;;;6062533;29;20233;-71
2022/05/26 00:03:55;;;;;;;6.23;3.17;;;;;;;;;;6061073;29;20229;-72
2022/05/26 00:07:17;;;;;;;7.03;4.13;;;;;;;;;;6066196;29;20298;-71
2022/05/26 00:10:38;;;;;;;8.70;3.93;;;;;;;;;;6061945;29;20246;-71
2022/05/26 00:14:01;;;;;;;6.30;3.97;;;;;;;;;;6059888;29;20667;-71
2022/05/26 00:17:22;;;;;;;5.20;3.70;;;;;;;;;;6056360;29;20268;-70
2022/05/26 00:20:43;;;;;;;5.73;5.20;;;;;;;;;;6057809;29;20230;-70
2022/05/26 00:24:05;;;;;;;6.90;4.50;;;;;;;;;;6057910;29;20610;-71
2022/05/26 00:27:26;;;;;;;7.43;4.93;;;;;;;;;;6056011;29;20230;-71
2022/05/26 00:30:48;;;;;;;5.57;4.93;;;;;;;;;;6055340;29;20242;-71
2022/05/26 00:34:09;;;;;;;4.73;4.43;;;;;;;;;;6058237;29;20233;-71
2022/05/26 00:37:30;;;;;;;5.87;5.03;;;;;;;;;;6058089;29;20726;-71
2022/05/26 00:40:52;;;;;;;6.53;4.83;;;;;;;;;;6055490;29;20237;-71
2022/05/26 00:44:12;;;;;;;5.43;5.03;;;;;;;;;;6058383;29;20879;-70
2022/05/26 00:47:34;;;;;;;7.07;4.97;;;;;;;;;;6056082;29;20233;-71
2022/05/26 00:50:57;;;;;;;7.27;6.23;;;;;;;;;;6056125;29;20556;-71
2022/05/26 00:54:20;;;;;;;5.37;4.87;;;;;;;;;;6055469;29;20233;-71
2022/05/26 00:57:43;;;;;;;6.70;5.93;;;;;;;;;;6055407;29;20229;-71
2022/05/26 01:01:04;;;;;;;5.37;4.97;;;;;;;;;;6057374;29;20252;-71
2022/05/26 01:04:26;;;;;;;7.33;6.07;;;;;;;;;;6052287;29;20249;-70
2022/05/26 01:07:47;;;;;;;6.47;5.93;;;;;;;;;;6056170;29;20246;-70
2022/05/26 01:11:08;;;;;;;5.73;5.10;;;;;;;;;;6053620;29;20276;-70
2022/05/26 01:14:33;;;;;;;6.13;5.63;;;;;;;;;;6059089;29;20245;-71
2022/05/26 01:17:58;;;;;;;6.60;6.00;;;;;;;;;;6039848;29;20234;-70
2022/05/26 01:21:22;;;;;;;6.43;5.13;;;;;;;;;;6057818;29;20819;-70
2022/05/26 01:24:58;;;;;;;6.07;5.57;;;;;;;;;;6056118;29;20619;-70
2022/05/26 01:28:25;;;;;;;7.30;5.70;;;;;;;;;;6058048;29;20615;-70
2022/05/26 01:31:51;;;;;;;7.53;6.43;;;;;;;;;;6057837;29;20324;-70
2022/05/26 01:35:28;;;;;;;6.37;5.67;;;;;;;;;;6053402;29;20322;-71
2022/05/26 01:38:57;;;;;;;6.23;5.67;;;;;;;;;;6051518;29;20237;-69
2022/05/26 01:42:22;;;;;;;5.90;5.30;;;;;;;;;;6052614;29;20233;-71
2022/05/26 01:45:46;;;;;;;6.43;5.83;;;;;;;;;;6054498;29;20326;-71
2022/05/26 01:49:12;;;;;;;12.37;6.40;;;;;;;;;;6043194;29;22293;-70
2022/05/26 01:52:36;;;;;;;6.77;6.17;;;;;;;;;;6048654;29;20217;-71
2022/05/26 01:55:59;;;;;;;5.87;5.13;;;;;;;;;;6045482;29;20229;-71
2022/05/26 01:59:23;;;;;;;7.87;6.53;;;;;;;;;;6051869;29;20237;-71
2022/05/26 02:02:45;;;;;;;8.17;6.33;;;;;;;;;;6057038;29;20791;-70
2022/05/26 02:06:10;;;;;;;7.70;6.43;;;;;;;;;;6054090;29;20332;-71
2022/05/26 02:09:38;;;;;;;7.63;6.93;;;;;;;;;;6034805;29;20256;-71
2022/05/26 02:13:01;;;;;;;7.70;6.87;;;;;;;;;;6034955;29;20310;-70
2022/05/26 02:16:23;;;;;;;9.10;6.80;;;;;;;;;;6037353;29;20237;-70
2022/05/26 02:19:46;;;;;;;7.53;6.53;;;;;;;;;;6034401;29;20228;-70
2022/05/26 02:23:12;;;;;;;8.63;7.20;;;;;;;;;;6036302;29;20229;-71
2022/05/26 02:26:34;;;;;;;8.23;6.47;;;;;;;;;;6030317;29;20233;-70
2022/05/26 02:29:56;;;;;;;8.53;7.83;;;;;;;;;;6027877;29;20242;-71
2022/05/26 02:33:17;;;;;;;9.03;8.07;;;;;;;;;;6047054;29;20834;-70
2022/05/26 02:36:38;;;;;;;7.83;7.13;;;;;;;;;;6045049;29;20237;-71
2022/05/26 02:40:00;;;;;;;8.80;7.60;;;;;;;;;;6040282;29;20749;-71
2022/05/26 02:43:23;;;;;;;7.90;7.20;;;;;;;;;;6030631;29;20241;-70
2022/05/26 02:46:55;;;;;;;8.30;7.50;;;;;;;;;;6023441;29;20237;-71
2022/05/26 02:50:24;;;;;;;11.80;7.90;;;;;;;;;;6038468;29;20249;-71
2022/05/26 02:53:48;;;;;;;10.03;7.70;;;;;;;;;;6028283;29;20241;-71
2022/05/26 02:57:13;;;;;;;11.17;8.13;;;;;;;;;;6031110;29;20237;-71
2022/05/26 03:00:37;;;;;;;9.70;6.97;;;;;;;;;;6031315;29;20585;-71
2022/05/26 03:03:59;;;;;;;11.87;8.73;;;;;;;;;;6040972;29;20237;-71
2022/05/26 03:07:23;;;;;;;9.20;7.60;;;;;;;;;;6044052;29;20260;-71
2022/05/26 03:10:48;;;;;;;7.57;6.87;;;;;;;;;;6031988;29;21545;-72
2022/05/26 03:14:09;;;;;;;13.83;8.97;;;;;;;;;;6039362;29;20261;-71
2022/05/26 03:17:30;;;;;;;6.97;6.33;;;;;;;;;;6029732;29;20245;-71
2022/05/26 03:20:50;;;;;;;8.10;7.30;;;;;;;;;;6030856;29;20237;-71
2022/05/26 03:24:11;;;;;;;8.20;6.47;;;;;;;;;;6031838;29;20337;-71
2022/05/26 03:27:32;;;;;;;9.00;6.53;;;;;;;;;;6036651;29;20261;-71
2022/05/26 03:30:54;;;;;;;8.33;7.53;;;;;;;;;;6037754;29;20798;-72
2022/05/26 03:41:31;;;;;;;9.17;7.43;;;;;;;;;;6039336;29;20229;-71
2022/05/26 03:44:52;;;;;;;12.63;7.50;;;;;;;;;;6036176;29;20241;-71
2022/05/26 03:48:14;;;;;;;17.80;8.10;;;;;;;;;;6034836;29;20327;-71
2022/05/26 03:51:35;;;;;;;7.60;6.90;;;;;;;;;;6029363;29;20245;-72
2022/05/26 03:54:55;;;;;;;14.30;7.63;;;;;;;;;;6044659;29;20268;-71
2022/05/26 03:58:17;;;;;;;8.67;7.87;;;;;;;;;;6042447;29;20233;-70
2022/05/26 04:01:37;;;;;;;7.43;6.73;;;;;;;;;;6039390;29;20245;-70
2022/05/26 04:05:00;;;;;;;8.63;7.80;;;;;;;;;;6043620;29;20294;-71
2022/05/26 04:08:21;;;;;;;10.57;8.23;;;;;;;;;;6046732;29;20229;-71
2022/05/26 04:11:42;;;;;;;8.37;7.57;;;;;;;;;;6033514;29;20261;-71
2022/05/26 04:15:03;;;;;;;7.40;6.70;;;;;;;;;;6039007;29;20233;-70
2022/05/26 04:18:24;;;;;;;8.90;7.83;;;;;;;;;;6036203;29;20237;-71
2022/05/26 04:25:22;;;;;;;9.60;6.67;;;;;;;;;;6034742;29;20233;-71
2022/05/26 04:28:42;;;;;;;12.80;6.83;;;;;;;;;;6039391;29;20261;-70
2022/05/26 04:32:03;;;;;;;7.87;6.53;;;;;;;;;;6045323;29;20256;-69
2022/05/26 04:35:23;;;;;;;9.67;7.27;;;;;;;;;;6040773;29;20355;-70
2022/05/26 04:38:46;;;;;;;10.37;7.43;;;;;;;;;;6047884;29;20648;-71
2022/05/26 04:42:06;;;;;;;8.40;6.77;;;;;;;;;;6043933;29;20296;-70
2022/05/26 04:45:27;;;;;;;8.63;7.17;;;;;;;;;;6038472;29;20257;-71
2022/05/26 04:48:48;;;;;;;9.50;6.30;;;;;;;;;;6034133;29;20323;-71
2022/05/26 04:52:10;;;;;;;7.10;6.37;;;;;;;;;;6038424;29;20626;-70
2022/05/26 04:55:32;;;;;;;8.90;5.83;;;;;;;;;;6031734;29;20237;-70
2022/05/26 04:58:53;;;;;;;10.50;6.17;;;;;;;;;;6040731;29;20229;-70
2022/05/26 05:02:14;;;;;;;8.73;5.83;;;;;;;;;;6055556;29;20314;-70
2022/05/26 05:05:34;;;;;;;9.80;5.83;;;;;;;;;;6051991;29;20320;-70
2022/05/26 05:08:55;;;;;;;12.77;6.70;;;;;;;;;;6061911;29;20233;-71
2022/05/26 05:12:18;;;;;;;6.53;5.40;;;;;;;;;;6054749;29;20241;-71
2022/05/26 05:15:42;;;;;;;7.10;4.83;;;;;;;;;;6050365;29;20233;-71
2022/05/26 05:19:03;;;;;;;6.60;5.90;;;;;;;;;;6051467;29;21854;-71
2022/05/26 05:22:25;;;;;;;8.67;5.07;;;;;;;;;;6053655;29;20241;-70
2022/05/26 05:25:49;;;;;;;7.93;5.63;;;;;;;;;;6053482;29;20620;-71
2022/05/26 05:29:12;;;;;;;8.43;4.83;;;;;;;;;;6047345;29;20232;-71
2022/05/26 05:32:36;;;;;;;6.90;4.30;;;;;;;;;;6055045;29;20241;-71
2022/05/26 05:36:01;;;;;;;10.50;5.63;;;;;;;;;;6048792;29;20624;-71
2022/05/26 05:39:22;;;;;;;7.40;4.77;;;;;;;;;;6062631;29;21305;-71
2022/05/26 05:42:42;;;;;;;8.03;4.33;;;;;;;;;;6051095;29;21803;-70
2022/05/26 05:46:06;;;;;;;9.07;4.53;;;;;;;;;;6045923;29;20233;-71
2022/05/26 05:49:28;;;;;;;5.77;3.87;;;;;;;;;;6052838;29;20237;-71
2022/05/26 05:52:48;;;;;;;7.93;3.53;;;;;;;;;;6049943;29;20237;-70
2022/05/26 05:56:09;;;;;;;7.27;4.37;;;;;;;;;;6050383;29;20225;-71
2022/05/26 05:59:29;;;;;;;9.33;4.63;;;;;;;;;;6046863;29;22053;-71
2022/05/26 06:02:51;;;;;;;12.40;4.53;;;;;;;;;;6062474;29;20229;-71
2022/05/26 06:06:12;;;;;;;10.47;4.33;;;;;;;;;;6054999;29;20241;-72
2022/05/26 06:09:32;;;;;;;7.90;4.50;;;;;;;;;;6064459;29;20316;-70
2022/05/26 06:12:52;;;;;;;6.50;3.07;;;;;;;;;;6054961;29;20521;-71
2022/05/26 06:16:13;;;;;;;6.87;3.80;;;;;;;;;;6045623;29;20325;-71
2022/05/26 06:19:36;;;;;;;6.13;2.70;;;;;;;;;;6041074;29;21038;-71
2022/05/26 06:22:56;;;;;;;10.13;2.87;;;;;;;;;;6049262;29;20225;-71
2022/05/26 06:26:17;;;;;;;4.93;2.60;;;;;;;;;;6035025;29;20328;-71
2022/05/26 06:29:51;;;;;;;7.60;3.00;;;;;;;;;;6037761;29;20237;-71
2022/05/26 06:40:29;;;;;;;8.93;2.60;;;;;;;;;;6043993;29;20465;-71
2022/05/26 06:43:51;;;;;;;6.90;3.07;;;;;;;;;;6031307;29;20261;-72
2022/05/26 06:47:14;;;;;;;6.13;2.77;;;;;;;;;;6010707;29;20245;-72
2022/05/26 06:50:35;;;;;;;5.63;2.33;;;;;;;;;;6030757;29;20237;-69
2022/05/26 06:53:57;;;;;;;7.97;2.80;;;;;;;;;;6035468;29;20269;-69
2022/05/26 06:57:18;;;;;;;6.87;2.90;;;;;;;;;;6034986;29;20240;-68
2022/05/26 07:00:38;;;;;;;5.97;2.73;;;;;;;;;;6041511;29;20225;-71
2022/05/26 07:03:59;;;;;;;5.53;2.20;;;;;;;;;;6042518;29;20253;-69
2022/05/26 07:07:19;;;;;;;5.60;2.40;;;;;;;;;;6040567;29;20229;-70
2022/05/26 07:10:41;;;;;;;6.23;2.77;;;;;;;;;;6048615;29;20241;-71
2022/05/26 07:14:02;;;;;;;5.90;2.70;;;;;;;;;;6048862;29;20237;-71
2022/05/26 07:17:22;;;;;;;10.37;3.40;;;;;;;;;;6040797;29;20261;-71
2022/05/26 07:20:43;;;;;;;4.13;1.67;;;;;;;;;;6038580;29;20233;-71
2022/05/26 07:24:03;;;;;;;4.43;2.23;;;;;;;;;;6042873;29;20320;-70
2022/05/26 07:27:25;;;;;;;8.37;2.70;;;;;;;;;;6037109;29;20236;-71
2022/05/26 07:30:46;;;;;;;5.10;1.90;;;;;;;;;;6038621;29;20265;-70
2022/05/26 07:34:07;;;;;;;5.63;1.57;;;;;;;;;;6035187;29;20268;-69
2022/05/26 07:41:17;;;;;;;5.23;1.80;;;;;;;;;;6048861;29;20229;-70
2022/05/26 07:44:40;;;;;;;5.77;2.10;;;;;;;;;;6035519;29;20836;-70
2022/05/26 07:48:01;;;;;;;3.20;1.50;;;;;;;;;;6029306;29;20241;-71
2022/05/26 07:51:21;;;;;;;6.40;2.27;;;;;;;;;;6040599;29;20233;-72
2022/05/26 07:54:42;;;;;;;4.50;1.40;;;;;;;;;;6041526;29;20324;-69
2022/05/26 07:58:02;;;;;;;3.00;1.57;;;;;;;;;;6038367;29;20233;-69
2022/05/26 08:01:24;;;;;;;2.03;1.13;;;;;;;;;;6045769;29;20237;-69
2022/05/26 08:04:45;;;;;;;2.20;1.33;;;;;;;;;;6046162;29;20312;-70
2022/05/26 08:08:06;;;;;;;2.23;0.93;;;;;;;;;;6043656;29;20652;-68
2022/05/26 08:11:26;;;;;;;1.00;0.53;;;;;;;;;;6043659;29;20241;-69
2022/05/26 08:14:47;;;;;;;5.07;1.67;;;;;;;;;;6033477;29;20387;-69
2022/05/26 08:18:09;;;;;;;3.93;1.10;;;;;;;;;;6035816;29;20229;-69
2022/05/26 08:21:30;;;;;;;9.17;1.67;;;;;;;;;;6041150;29;20562;-69
2022/05/26 08:24:51;;;;;;;1.87;1.20;;;;;;;;;;6041438;29;20237;-69
2022/05/26 08:28:12;;;;;;;5.30;1.07;;;;;;;;;;6041066;29;20763;-70
2022/05/26 08:31:32;;;;;;;4.13;1.07;;;;;;;;;;6037497;29;20262;-69
2022/05/26 08:34:58;;;;;;;4.00;1.30;;;;;;;;;;6041858;29;20261;-69
2022/05/26 08:38:19;;;;;;;1.67;0.97;;;;;;;;;;6039469;29;20324;-68
2022/05/26 08:41:40;;;;;;;2.43;1.60;;;;;;;;;;6039786;29;20229;-69
2022/05/26 08:45:03;;;;;;;7.03;4.97;;;;;;;;;;6035748;29;20320;-66
2022/05/26 08:48:38;;;;;;;89.23;80.57;;;;;;;;;;6039240;29;20356;-71
2022/05/26 08:52:02;;;;;;;14.70;12.68;;;;;;;;;;6036990;29;20249;-66
2022/05/26 08:55:24;;;;;;;18.63;17.08;;;;;;;;;;6040025;29;20232;-65
2022/05/26 08:58:46;;;;;;;124.57;114.07;;;;;;;;;;6039072;29;20253;-67
2022/05/26 09:02:14;;;;;;;16.83;15.25;;;;;;;;;;6032936;29;20245;-68
2022/05/26 09:05:38;;;;;;;12.82;11.77;;;;;;;;;;6033456;29;21240;-69
2022/05/26 09:16:15;;;;;;;2.20;0.80;;;;;;;;;;6034080;29;21959;-68
2022/05/26 09:19:48;;;;;;;4.57;1.20;;;;;;;;;;6032071;29;20254;-69
2022/05/26 09:23:10;;;;;;;4.30;0.90;;;;;;;;;;6026783;29;20229;-69
2022/05/26 09:26:32;;;;;;;2.78;1.50;;;;;;;;;;6028657;29;20316;-69
2022/05/26 09:29:52;;;;;;;3.40;1.00;;;;;;;;;;6042363;29;20233;-68
2022/05/26 09:33:20;;;;;;;2.90;1.20;;;;;;;;;;6051443;29;20817;-69
2022/05/26 09:36:44;;;;;;;1.33;0.63;;;;;;;;;;6050475;29;20237;-70
2022/05/26 09:40:12;;;;;;;1.60;0.95;;;;;;;;;;6047181;29;20236;-69
2022/05/26 09:43:34;;;;;;;2.58;1.45;;;;;;;;;;6051060;29;20237;-67
2022/05/26 09:46:55;;;;;;;2.92;1.05;;;;;;;;;;6044904;29;20245;-69
2022/05/26 09:50:29;;;;;;;3.13;1.30;;;;;;;;;;6062814;29;20237;-69
2022/05/26 09:53:51;;;;;;;1.70;0.80;;;;;;;;;;6065213;29;20245;-69
2022/05/26 09:57:13;;;;;;;2.25;1.10;;;;;;;;;;6064851;29;20476;-69
2022/05/26 10:00:38;;;;;;;3.17;1.33;;;;;;;;;;6056368;29;20233;-70
2022/05/26 10:04:02;;;;;;;2.60;1.00;;;;;;;;;;6058793;29;20312;-69
2022/05/26 10:07:25;;;;;;;6.38;1.50;;;;;;;;;;6052133;29;20234;-69
2022/05/26 10:10:52;;;;;;;5.80;1.48;;;;;;;;;;6055187;29;20236;-68
2022/05/26 10:14:24;;;;;;;3.03;0.80;;;;;;;;;;6050617;29;20241;-69
2022/05/26 10:17:52;;;;;;;5.43;1.30;;;;;;;;;;6045719;29;20240;-70
2022/05/26 10:21:16;;;;;;;4.13;1.35;;;;;;;;;;6047655;29;20233;-69
2022/05/26 10:24:42;;;;;;;2.17;1.23;;;;;;;;;;6051910;29;20650;-69
2022/05/26 10:28:17;;;;;;;5.22;1.48;;;;;;;;;;6047063;29;20521;-71
2022/05/26 10:31:44;;;;;;;3.72;1.52;;;;;;;;;;6046204;29;20229;-70
2022/05/26 10:35:10;;;;;;;3.58;1.33;;;;;;;;;;6053637;29;22782;-72
2022/05/26 10:38:45;;;;;;;4.13;1.60;;;;;;;;;;6050160;29;20225;-71
2022/05/26 10:42:07;;;;;;;6.60;1.60;;;;;;;;;;6047228;29;20236;-70
2022/05/26 10:45:33;;;;;;;2.35;1.23;;;;;;;;;;6035335;29;20236;-70
2022/05/26 10:48:57;;;;;;;3.30;1.00;;;;;;;;;;6034501;29;20240;-72
2022/05/26 10:52:21;;;;;;;2.83;1.17;;;;;;;;;;6025811;29;20245;-71
2022/05/26 10:55:46;;;;;;;3.13;1.00;;;;;;;;;;6022703;29;20229;-71
2022/05/26 10:59:09;;;;;;;1.95;1.20;;;;;;;;;;6030098;29;20245;-71
2022/05/26 11:02:33;;;;;;;4.15;1.13;;;;;;;;;;6016156;29;20233;-70
2022/05/26 11:05:58;;;;;;;2.92;1.35;;;;;;;;;;6023538;29;20245;-71
2022/05/26 11:09:22;;;;;;;5.13;1.50;;;;;;;;;;6016551;29;20624;-69
2022/05/26 11:12:46;;;;;;;4.25;1.10;;;;;;;;;;6005454;29;20244;-72
2022/05/26 11:19:51;;;;;;;2.78;1.20;;;;;;;;;;6009704;29;20232;-71
2022/05/26 11:23:17;;;;;;;7.63;1.52;;;;;;;;;;6035073;29;20328;-71
2022/05/26 11:26:42;;;;;;;2.88;1.10;;;;;;;;;;6041647;29;20225;-71
2022/05/26 11:30:04;;;;;;;3.08;0.73;;;;;;;;;;6052482;29;20229;-71
2022/05/26 11:37:18;;;;;;;5.07;1.30;;;;;;;;;;6319481;23;21205;-72
2022/05/26 11:40:44;;;;;;;6.10;1.60;;;;;;;;;;6021537;29;20647;-71
2022/05/26 11:44:06;;;;;;;4.10;0.90;;;;;;;;;;6030193;29;20627;-71
2022/05/26 11:47:32;;;;;;;3.65;1.35;;;;;;;;;;6039343;29;20333;-70
2022/05/26 11:50:58;;;;;;;6.07;1.63;;;;;;;;;;6035525;29;20518;-70
2022/05/26 11:54:33;;;;;;;4.80;2.10;;;;;;;;;;6036512;29;20541;-70
2022/05/26 11:57:55;;;;;;;13.27;1.33;;;;;;;;;;6039102;29;20230;-71
2022/05/26 12:01:34;;;;;;;5.93;1.50;;;;;;;;;;6033715;29;20268;-71
2022/05/26 12:04:54;;;;;;;4.10;1.13;;;;;;;;;;6035909;29;20242;-71
2022/05/26 12:08:31;;;;;;;6.50;1.58;;;;;;;;;;6041321;29;20233;-71
2022/05/26 12:11:54;;;;;;;5.63;1.50;;;;;;;;;;6040363;29;20242;-73
2022/05/26 12:15:17;;;;;;;2.95;1.23;;;;;;;;;;6033648;29;20806;-71
2022/05/26 12:18:40;;;;;;;2.60;1.30;;;;;;;;;;6035164;29;20237;-70
2022/05/26 12:22:14;;;;;;;10.05;1.70;;;;;;;;;;6035715;29;20229;-71
2022/05/26 12:25:35;;;;;;;2.90;1.80;;;;;;;;;;6036756;29;20517;-72
2022/05/26 12:29:16;;;;;;;3.20;1.65;;;;;;;;;;6040659;29;20242;-70
2022/05/26 12:32:38;;;;;;;2.65;1.30;;;;;;;;;;6036477;29;20238;-70
2022/05/26 12:36:03;;;;;;;2.67;0.98;;;;;;;;;;6035628;29;20343;-71
2022/05/26 12:39:32;;;;;;;3.33;1.38;;;;;;;;;;6041695;29;20333;-71
2022/05/26 12:43:02;;;;;;;3.45;1.25;;;;;;;;;;6048266;29;20559;-70
2022/05/26 12:46:33;;;;;;;4.27;1.10;;;;;;;;;;6042773;29;20237;-71
2022/05/26 12:49:57;;;;;;;3.60;1.33;;;;;;;;;;6040565;29;20242;-71
2022/05/26 12:53:20;;;;;;;4.95;1.30;;;;;;;;;;6043046;29;20241;-71
2022/05/26 12:56:47;;;;;;;4.97;1.92;;;;;;;;;;6043873;29;20234;-72
2022/05/26 13:00:29;;;;;;;3.25;1.05;;;;;;;;;;6041117;29;20670;-71
2022/05/26 13:03:57;;;;;;;4.15;1.20;;;;;;;;;;6043144;29;20341;-72
2022/05/26 13:07:19;;;;;;;2.47;1.30;;;;;;;;;;6042025;29;20237;-71
2022/05/26 13:10:41;;;;;;;4.53;2.35;;;;;;;;;;6038872;29;20234;-71
2022/05/26 13:14:04;;;;;;;3.35;0.98;;;;;;;;;;6041908;29;20242;-71
2022/05/26 13:17:26;;;;;;;4.15;1.65;;;;;;;;;;6040303;29;20627;-70
2022/05/26 13:20:46;;;;;;;5.53;1.55;;;;;;;;;;6035207;29;20234;-70
2022/05/26 13:24:14;;;;;;;2.97;1.30;;;;;;;;;;6037132;29;20237;-71
2022/05/26 13:27:45;;;;;;;3.33;1.10;;;;;;;;;;6041465;29;20780;-70
2022/05/26 13:34:44;;;;;;;3.80;1.20;;;;;;;;;;6042517;29;20234;-71
2022/05/26 13:38:04;;;;;;;6.20;2.03;;;;;;;;;;6036121;29;20611;-70
2022/05/26 13:41:26;;;;;;;2.42;1.27;;;;;;;;;;6046930;29;20539;-71
2022/05/26 13:44:48;;;;;;;5.70;1.45;;;;;;;;;;6034059;29;20277;-71
2022/05/26 13:48:27;;;;;;;4.38;1.13;;;;;;;;;;6036465;29;20269;-70
2022/05/26 13:51:48;;;;;;;4.78;1.88;;;;;;;;;;6043296;29;20237;-69
2022/05/26 13:55:17;;;;;;;5.22;2.17;;;;;;;;;;6039701;29;20234;-71
2022/05/26 13:58:39;;;;;;;3.40;1.58;;;;;;;;;;6025296;29;21153;-71
2022/05/26 14:02:07;;;;;;;3.85;1.27;;;;;;;;;;6035605;29;20249;-71
2022/05/26 14:05:29;;;;;;;2.88;1.48;;;;;;;;;;6041483;29;20241;-70
2022/05/26 14:08:51;;;;;;;3.75;1.77;;;;;;;;;;6042010;29;20237;-71
2022/05/26 14:12:23;;;;;;;4.63;1.55;;;;;;;;;;6044571;29;20486;-71
2022/05/26 14:15:46;;;;;;;3.75;2.05;;;;;;;;;;6045063;29;20343;-71
2022/05/26 14:19:09;;;;;;;4.22;1.67;;;;;;;;;;6045958;29;20238;-70
2022/05/26 14:22:31;;;;;;;5.80;1.83;;;;;;;;;;6040740;29;20522;-71
2022/05/26 14:25:59;;;;;;;3.78;1.75;;;;;;;;;;6045883;29;20332;-70
2022/05/26 14:29:34;;;;;;;5.40;1.45;;;;;;;;;;6037957;29;20249;-70
2022/05/26 14:32:55;;;;;;;4.47;1.60;;;;;;;;;;6040554;29;20230;-70
2022/05/26 14:36:16;;;;;;;4.93;2.17;;;;;;;;;;6033763;29;20229;-70
2022/05/26 14:39:37;;;;;;;4.63;1.73;;;;;;;;;;6039755;29;20246;-70
2022/05/26 14:42:58;;;;;;;4.80;2.38;;;;;;;;;;6041742;29;20608;-71
2022/05/26 14:46:18;;;;;;;5.25;1.40;;;;;;;;;;6043001;29;20591;-71
2022/05/26 14:49:39;;;;;;;5.43;1.35;;;;;;;;;;6036847;29;20261;-70
2022/05/26 14:53:02;;;;;;;4.18;2.35;;;;;;;;;;6035364;29;20230;-70
2022/05/26 14:56:22;;;;;;;2.77;1.20;;;;;;;;;;6043155;29;20249;-71
2022/05/26 14:59:42;;;;;;;4.63;1.88;;;;;;;;;;6041734;29;20225;-71
2022/05/26 15:03:02;;;;;;;4.87;1.73;;;;;;;;;;6035581;29;20647;-71
2022/05/26 15:06:23;;;;;;;4.57;1.47;;;;;;;;;;6036555;29;20230;-71
2022/05/26 15:09:45;;;;;;;5.13;1.30;;;;;;;;;;6040144;29;20573;-70
2022/05/26 15:13:06;;;;;;;3.65;1.10;;;;;;;;;;6039341;29;20234;-70
2022/05/26 15:16:26;;;;;;;1.87;1.17;;;;;;;;;;6038252;29;20241;-71
2022/05/26 15:19:49;;;;;;;3.47;1.30;;;;;;;;;;6036388;29;20234;-71
2022/05/26 15:23:09;;;;;;;5.80;1.23;;;;;;;;;;6041380;29;21069;-71
2022/05/26 15:26:31;;;;;;;3.92;1.52;;;;;;;;;;6039383;29;20292;-71
2022/05/26 15:29:51;;;;;;;5.03;1.30;;;;;;;;;;6042579;29;20234;-70
2022/05/26 15:33:12;;;;;;;4.03;1.47;;;;;;;;;;6038917;29;20508;-70
2022/05/26 15:36:33;;;;;;;6.90;2.50;;;;;;;;;;6033480;29;20529;-70
2022/05/26 15:39:55;;;;;;;2.73;1.30;;;;;;;;;;6040208;29;20242;-70
2022/05/26 15:43:17;;;;;;;6.40;1.47;;;;;;;;;;6038403;29;20249;-69
2022/05/26 15:46:38;;;;;;;4.87;1.57;;;;;;;;;;6033281;29;20628;-71
2022/05/26 15:49:59;;;;;;;3.80;2.23;;;;;;;;;;6037630;29;20241;-70
2022/05/26 15:53:20;;;;;;;6.23;1.90;;;;;;;;;;6032972;29;20253;-70
2022/05/26 15:56:41;;;;;;;6.07;1.80;;;;;;;;;;6039261;29;20223;-70
2022/05/26 16:00:03;;;;;;;10.33;2.13;;;;;;;;;;6040100;29;20246;-70
2022/05/26 16:03:25;;;;;;;6.63;2.67;;;;;;;;;;6036162;29;20715;-71
2022/05/26 16:06:46;;;;;;;6.57;1.90;;;;;;;;;;6035358;29;20337;-69
2022/05/26 16:10:09;;;;;;;6.97;2.07;;;;;;;;;;6034346;29;20242;-69
2022/05/26 16:13:30;;;;;;;6.43;2.33;;;;;;;;;;6043606;29;20233;-69
2022/05/26 16:16:51;;;;;;;5.00;2.47;;;;;;;;;;6043248;29;20237;-69
2022/05/26 16:20:12;;;;;;;8.47;2.60;;;;;;;;;;6045219;29;20234;-69
2022/05/26 16:23:33;;;;;;;4.73;2.17;;;;;;;;;;6047232;29;20249;-70
2022/05/26 16:26:54;;;;;;;5.10;2.23;;;;;;;;;;6042524;29;20238;-69
2022/05/26 16:30:16;;;;;;;7.30;2.20;;;;;;;;;;6039634;29;20926;-69
2022/05/26 16:33:37;;;;;;;5.83;2.20;;;;;;;;;;6041718;29;20230;-70
2022/05/26 16:36:58;;;;;;;4.03;2.27;;;;;;;;;;6046639;29;20234;-69
2022/05/26 16:40:18;;;;;;;4.20;2.40;;;;;;;;;;6038096;29;20396;-70
2022/05/26 16:43:39;;;;;;;5.20;2.50;;;;;;;;;;6040049;29;21096;-68
2022/05/26 16:47:00;;;;;;;9.03;3.10;;;;;;;;;;6039475;29;20238;-68
2022/05/26 16:50:26;;;;;;;7.97;3.20;;;;;;;;;;6044403;29;20234;-70
2022/05/26 16:53:46;;;;;;;5.47;2.20;;;;;;;;;;6031386;29;20445;-70
2022/05/26 16:57:07;;;;;;;5.27;1.90;;;;;;;;;;6019602;29;20241;-69
2022/05/26 17:00:27;;;;;;;5.83;3.13;;;;;;;;;;6027625;29;20238;-68
2022/05/26 17:03:48;;;;;;;8.70;2.90;;;;;;;;;;6029015;29;20253;-66
2022/05/26 17:07:10;;;;;;;5.30;1.97;;;;;;;;;;6030976;29;20615;-67
2022/05/26 17:10:32;;;;;;;2.53;1.60;;;;;;;;;;6024123;29;20242;-67
2022/05/26 17:21:10;;;;;;;5.43;1.90;;;;;;;;;;6022336;29;20722;-67
2022/05/26 17:24:32;;;;;;;5.00;2.40;;;;;;;;;;6027826;29;20777;-68
2022/05/26 17:27:54;;;;;;;7.40;2.30;;;;;;;;;;6020872;29;20237;-67
2022/05/26 17:31:15;;;;;;;4.63;2.43;;;;;;;;;;6033703;29;20253;-67
2022/05/26 17:34:36;;;;;;;5.27;3.03;;;;;;;;;;6033674;29;20271;-68
2022/05/26 17:37:56;;;;;;;4.57;2.43;;;;;;;;;;6030001;29;20254;-69
2022/05/26 17:41:34;;;;;;;5.97;2.00;;;;;;;;;;6031628;29;20246;-68
2022/05/26 17:44:55;;;;;;;4.67;3.23;;;;;;;;;;6022189;29;20242;-67
2022/05/26 17:48:16;;;;;;;3.33;2.10;;;;;;;;;;6021299;29;20265;-67
2022/05/26 17:51:38;;;;;;;5.23;2.07;;;;;;;;;;6023495;29;20238;-68
2022/05/26 17:55:02;;;;;;;4.17;2.20;;;;;;;;;;6010008;29;20340;-66
2022/05/26 17:58:24;;;;;;;4.37;2.80;;;;;;;;;;6036632;29;20234;-67
2022/05/26 18:01:47;;;;;;;4.73;2.43;;;;;;;;;;6026359;29;20241;-67
2022/05/26 18:05:09;;;;;;;5.10;2.50;;;;;;;;;;6042658;29;20237;-68
2022/05/26 18:08:29;;;;;;;2.67;1.80;;;;;;;;;;6037191;29;20238;-68
2022/05/26 18:11:50;;;;;;;5.60;2.40;;;;;;;;;;6032042;29;20237;-67
2022/05/26 18:15:12;;;;;;;5.67;2.47;;;;;;;;;;6036461;29;20706;-66
2022/05/26 18:18:35;;;;;;;5.10;2.50;;;;;;;;;;6027064;29;20242;-67
2022/05/26 18:21:56;;;;;;;6.40;2.30;;;;;;;;;;6020698;29;20616;-67
2022/05/26 18:25:16;;;;;;;5.43;3.23;;;;;;;;;;6005533;29;20230;-68
2022/05/26 18:28:38;;;;;;;3.92;2.10;;;;;;;;;;6016291;29;20853;-68
2022/05/26 18:32:00;;;;;;;5.13;2.33;;;;;;;;;;6021629;29;20300;-69
2022/05/26 18:35:23;;;;;;;4.20;2.23;;;;;;;;;;6012436;29;20245;-68
2022/05/26 18:38:43;;;;;;;5.33;2.13;;;;;;;;;;5994532;29;20306;-68
2022/05/26 18:42:04;;;;;;;6.93;2.27;;;;;;;;;;6011474;29;20247;-71
2022/05/26 18:45:25;;;;;;;6.63;2.23;;;;;;;;;;6016949;29;20851;-70
2022/05/26 18:48:48;;;;;;;2.40;1.57;;;;;;;;;;6018378;29;20230;-69
2022/05/26 18:52:10;;;;;;;3.43;1.90;;;;;;;;;;6007241;29;20465;-69
2022/05/26 18:55:33;;;;;;;2.83;2.00;;;;;;;;;;6013183;29;20238;-71
2022/05/26 18:58:54;;;;;;;3.87;1.97;;;;;;;;;;6022590;29;20237;-72
2022/05/26 19:02:18;;;;;;;2.53;1.50;;;;;;;;;;6024493;29;20677;-76
2022/05/26 19:05:42;;;;;;;2.23;1.43;;;;;;;;;;6016339;29;20237;-74
2022/05/26 19:09:03;;;;;;;1.60;1.50;;;;;;;;;;6013015;29;20272;-69
2022/05/26 19:12:25;;;;;;;1.93;1.03;;;;;;;;;;6015789;29;20234;-72
2022/05/26 19:15:46;;;;;;;2.67;1.50;;;;;;;;;;6013280;29;20237;-72
2022/05/26 19:19:07;;;;;;;4.17;1.87;;;;;;;;;;6024379;29;20670;-74
2022/05/26 19:22:29;;;;;;;3.10;1.60;;;;;;;;;;6020834;29;20552;-72
2022/05/26 19:25:50;;;;;;;2.50;1.67;;;;;;;;;;6027768;29;20265;-73
2022/05/26 19:29:12;;;;;;;2.57;1.10;;;;;;;;;;6027225;29;20238;-75
2022/05/26 19:32:33;;;;;;;2.90;1.60;;;;;;;;;;6023715;29;20234;-74
2022/05/26 19:35:54;;;;;;;4.63;1.77;;;;;;;;;;6027953;29;20238;-73
2022/05/26 19:39:16;;;;;;;3.87;2.63;;;;;;;;;;6029149;29;20234;-72
2022/05/26 19:42:37;;;;;;;3.53;1.83;;;;;;;;;;6028223;29;20230;-71
2022/05/26 19:45:58;;;;;;;3.20;2.30;;;;;;;;;;6031936;29;20241;-73
2022/05/26 19:49:19;;;;;;;3.63;2.40;;;;;;;;;;6033840;29;20781;-72
2022/05/26 19:52:40;;;;;;;4.87;2.57;;;;;;;;;;6027379;29;20253;-73
2022/05/26 19:56:01;;;;;;;4.13;2.70;;;;;;;;;;6032449;29;20241;-72
2022/05/26 19:59:22;;;;;;;3.60;2.03;;;;;;;;;;6032640;29;21377;-71
2022/05/26 20:02:43;;;;;;;4.53;3.73;;;;;;;;;;6030387;29;20246;-74
2022/05/26 20:06:04;;;;;;;5.23;2.93;;;;;;;;;;6030414;29;20245;-70
2022/05/26 20:09:25;;;;;;;2.73;2.53;;;;;;;;;;6035840;29;20340;-72
2022/05/26 20:12:47;;;;;;;4.50;4.10;;;;;;;;;;6031798;29;20412;-73
2022/05/26 20:16:08;;;;;;;4.27;3.70;;;;;;;;;;6028645;29;20239;-76
2022/05/26 20:19:29;;;;;;;4.93;3.20;;;;;;;;;;6036698;29;20336;-73
2022/05/26 20:22:50;;;;;;;5.83;3.77;;;;;;;;;;6027498;29;20242;-71
2022/05/26 20:26:14;;;;;;;6.43;3.03;;;;;;;;;;6031915;29;20238;-70
2022/05/26 20:29:37;;;;;;;4.50;2.73;;;;;;;;;;6020882;29;20238;-70
2022/05/26 20:32:58;;;;;;;4.43;2.30;;;;;;;;;;6028550;29;20226;-69
2022/05/26 20:36:18;;;;;;;5.70;3.10;;;;;;;;;;6028089;29;20246;-71
2022/05/26 20:39:42;;;;;;;5.23;2.53;;;;;;;;;;6027393;29;20234;-70
2022/05/26 20:43:03;;;;;;;6.63;2.80;;;;;;;;;;6033421;29;20610;-70
2022/05/26 20:46:26;;;;;;;4.67;3.07;;;;;;;;;;6031553;29;20234;-69
2022/05/26 20:49:48;;;;;;;7.53;3.47;;;;;;;;;;6030064;29;20230;-69
2022/05/26 20:53:08;;;;;;;8.47;3.53;;;;;;;;;;6033845;29;20797;-70
2022/05/26 20:56:30;;;;;;;7.73;4.47;;;;;;;;;;6017969;29;20246;-69
2022/05/26 20:59:51;;;;;;;4.87;3.80;;;;;;;;;;6034366;29;20234;-69